createdAt,value
2022-12-25T00:01:08.915Z,101475.44
2022-12-25T00:03:36.096Z,101474.13
2022-12-25T00:06:02.778Z,101471.13
2022-12-25T00:08:29.410Z,101468.91
2022-12-25T00:11:05.363Z,101468.13
2022-12-25T00:13:32.008Z,101457.00
2022-12-25T00:15:58.792Z,101461.44
2022-12-25T00:18:25.921Z,101460.69
2022-12-25T00:20:57.945Z,101451.97
2022-12-25T00:23:24.578Z,101441.31
2022-12-25T00:25:51.724Z,101454.50
2022-12-25T00:28:18.626Z,101463.13
2022-12-25T00:30:45.382Z,101456.91
2022-12-25T00:33:12.037Z,101460.09
2022-12-25T00:35:38.507Z,101444.50
2022-12-25T00:38:05.035Z,101446.59
2022-12-25T00:40:31.474Z,101448.50
2022-12-25T00:42:58.009Z,101457.25
2022-12-25T00:45:24.673Z,101456.13
2022-12-25T00:47:51.227Z,101446.09
2022-12-25T00:50:18.206Z,101451.38
2022-12-25T00:52:44.678Z,101457.25
2022-12-25T00:55:11.136Z,101458.22
2022-12-25T00:57:37.596Z,101455.69
2022-12-25T01:00:04.910Z,101447.75
2022-12-25T01:02:31.455Z,101451.38
2022-12-25T01:04:58.067Z,101456.81
2022-12-25T01:07:26.317Z,101455.03
2022-12-25T01:10:11.313Z,101454.25
2022-12-25T01:12:41.225Z,101451.53
2022-12-25T01:15:09.711Z,101461.75
2022-12-25T01:17:36.187Z,101465.72
2022-12-25T01:20:02.857Z,101476.53
2022-12-25T01:22:29.371Z,101483.53
2022-12-25T01:24:55.916Z,101472.88
2022-12-25T01:27:22.398Z,101473.69
2022-12-25T01:29:49.079Z,101474.16
2022-12-25T01:32:15.528Z,101477.19
2022-12-25T01:34:42.071Z,101483.06
2022-12-25T01:37:08.623Z,101481.94
2022-12-25T01:39:35.096Z,101488.63
2022-12-25T01:42:01.567Z,101474.31
2022-12-25T01:44:37.089Z,101464.91
2022-12-25T01:47:05.459Z,101466.84
2022-12-25T01:49:35.001Z,101463.81
2022-12-25T01:52:24.104Z,101454.56
2022-12-25T01:54:58.051Z,101460.16
2022-12-25T01:57:32.503Z,101472.72
2022-12-25T02:00:00.728Z,101471.91
2022-12-25T02:02:28.932Z,101476.84
2022-12-25T02:05:04.832Z,101478.44
2022-12-25T02:07:34.669Z,101490.84
2022-12-25T02:10:01.171Z,101485.13
2022-12-25T02:12:30.771Z,101468.75
2022-12-25T02:15:05.655Z,101470.00
2022-12-25T02:17:56.455Z,101466.50
2022-12-25T02:20:35.227Z,101465.06
2022-12-25T02:23:33.298Z,101466.97
2022-12-25T02:26:15.479Z,101463.16
2022-12-25T02:28:48.192Z,101462.69
2022-12-25T02:31:27.526Z,101463.00
2022-12-25T02:34:08.901Z,101458.56
2022-12-25T02:36:42.872Z,101461.41
2022-12-25T02:39:37.936Z,101473.03
2022-12-25T02:42:08.389Z,101478.75
2022-12-25T02:44:59.141Z,101473.03
2022-12-25T02:47:44.957Z,101467.47
2022-12-25T02:50:33.119Z,101465.38
2022-12-25T02:53:20.887Z,101451.72
2022-12-25T02:56:08.318Z,101445.19
2022-12-25T02:58:56.687Z,101442.81
2022-12-25T03:01:47.153Z,101449.34
2022-12-25T03:04:37.252Z,101438.00
2022-12-25T03:07:11.622Z,101427.38
2022-12-25T03:10:01.724Z,101420.50
2022-12-25T03:13:08.144Z,101419.56
2022-12-25T03:15:53.150Z,101403.47
2022-12-25T03:18:24.557Z,101398.53
2022-12-25T03:21:11.235Z,101396.94
2022-12-25T03:23:59.151Z,101393.13
2022-12-25T03:26:46.051Z,101395.03
2022-12-25T03:29:32.726Z,101393.91
2022-12-25T03:32:33.357Z,101394.72
2022-12-25T03:35:22.880Z,101392.50
2022-12-25T03:38:13.932Z,101390.59
2022-12-25T03:41:12.424Z,101383.09
2022-12-25T03:44:28.231Z,101389.66
2022-12-25T03:47:30.769Z,101385.69
2022-12-25T03:50:26.310Z,101388.38
2022-12-25T03:53:14.125Z,101402.06
2022-12-25T03:56:00.484Z,101400.31
2022-12-25T03:58:46.351Z,101401.25
2022-12-25T04:01:32.471Z,101390.94
2022-12-25T04:04:17.489Z,101385.81
2022-12-25T04:07:02.355Z,101381.22
2022-12-25T04:09:47.147Z,101379.63
2022-12-25T04:12:31.847Z,101389.03
2022-12-25T04:15:16.711Z,101387.72
2022-12-25T04:18:01.377Z,101395.38
2022-12-25T04:20:46.183Z,101399.34
2022-12-25T04:23:30.922Z,101402.03
2022-12-25T04:26:16.812Z,101400.63
2022-12-25T04:29:01.619Z,101409.53
2022-12-25T04:31:46.555Z,101408.88
2022-12-25T04:34:32.002Z,101412.19
2022-12-25T04:36:58.483Z,101401.19
2022-12-25T04:39:24.927Z,101394.97
2022-12-25T04:41:51.411Z,101393.88
2022-12-25T04:44:17.856Z,101392.13
2022-12-25T04:46:44.387Z,101393.38
2022-12-25T04:49:10.927Z,101403.06
2022-12-25T04:51:37.635Z,101388.78
2022-12-25T04:54:04.274Z,101390.56
2022-12-25T04:56:30.709Z,101391.16
2022-12-25T04:58:57.171Z,101394.84
2022-12-25T05:01:23.701Z,101394.22
2022-12-25T05:03:50.346Z,101387.41
2022-12-25T05:06:17.198Z,101383.75
2022-12-25T05:08:43.698Z,101386.00
2022-12-25T05:11:12.980Z,101382.50
2022-12-25T05:13:40.223Z,101374.69
2022-12-25T05:16:08.918Z,101374.06
2022-12-25T05:18:36.084Z,101370.56
2022-12-25T05:21:03.007Z,101359.44
2022-12-25T05:23:29.500Z,101347.34
2022-12-25T05:25:56.438Z,101354.00
2022-12-25T05:28:22.957Z,101345.59
2022-12-25T05:30:49.464Z,101347.66
2022-12-25T05:33:15.967Z,101340.97
2022-12-25T05:35:42.468Z,101347.81
2022-12-25T05:38:08.948Z,101332.81
2022-12-25T05:40:40.025Z,101337.13
2022-12-25T05:43:08.229Z,101345.72
2022-12-25T05:45:34.934Z,101341.63
2022-12-25T05:48:01.542Z,101339.72
2022-12-25T05:50:28.099Z,101341.28
2022-12-25T05:52:54.557Z,101333.81
2022-12-25T05:55:21.030Z,101338.91
2022-12-25T05:57:47.644Z,101332.56
2022-12-25T06:00:14.387Z,101340.34
2022-12-25T06:02:40.987Z,101340.19
2022-12-25T06:05:07.945Z,101338.78
2022-12-25T06:07:34.414Z,101322.56
2022-12-25T06:10:00.846Z,101324.59
2022-12-25T06:12:27.286Z,101320.31
2022-12-25T06:14:53.730Z,101311.88
2022-12-25T06:17:20.197Z,101303.13
2022-12-25T06:19:46.656Z,101295.19
2022-12-25T06:22:13.119Z,101309.16
2022-12-25T06:24:40.719Z,101315.06
2022-12-25T06:27:07.190Z,101320.47
2022-12-25T06:29:33.654Z,101329.03
2022-12-25T06:32:00.273Z,101322.03
2022-12-25T06:34:27.126Z,101317.13
2022-12-25T06:36:54.233Z,101305.34
2022-12-25T06:39:25.506Z,101311.69
2022-12-25T06:41:52.040Z,101309.16
2022-12-25T06:44:18.586Z,101305.19
2022-12-25T06:46:45.108Z,101313.13
2022-12-25T06:49:11.641Z,101305.16
2022-12-25T06:51:38.123Z,101296.72
2022-12-25T06:54:05.049Z,101297.53
2022-12-25T06:56:32.610Z,101289.88
2022-12-25T06:59:01.609Z,101272.53
2022-12-25T07:01:34.335Z,101274.44
2022-12-25T07:04:07.589Z,101274.59
2022-12-25T07:06:34.508Z,101270.78
2022-12-25T07:09:00.989Z,101270.78
2022-12-25T07:11:27.543Z,101264.25
2022-12-25T07:13:54.076Z,101275.53
2022-12-25T07:16:20.679Z,101281.41
2022-12-25T07:18:47.192Z,101273.94
2022-12-25T07:21:18.299Z,101285.72
2022-12-25T07:23:46.797Z,101300.38
2022-12-25T07:26:14.155Z,101315.47
2022-12-25T07:28:41.187Z,101298.94
2022-12-25T07:31:11.079Z,101291.31
2022-12-25T07:33:37.581Z,101293.53
2022-12-25T07:36:05.542Z,101297.03
2022-12-25T07:38:32.665Z,101302.91
2022-12-25T07:40:59.319Z,101297.84
2022-12-25T07:43:25.988Z,101294.13
2022-12-25T07:46:00.240Z,101299.09
2022-12-25T07:48:27.848Z,101296.38
2022-12-25T07:51:02.486Z,101305.44
2022-12-25T07:53:29.427Z,101307.84
2022-12-25T07:56:06.701Z,101303.25
2022-12-25T07:58:34.399Z,101288.91
2022-12-25T08:01:12.882Z,101297.84
2022-12-25T08:03:39.505Z,101297.50
2022-12-25T08:06:08.910Z,101302.59
2022-12-25T08:08:37.030Z,101319.75
2022-12-25T08:11:04.144Z,101339.81
2022-12-25T08:13:31.875Z,101325.66
2022-12-25T08:16:00.003Z,101320.53
2022-12-25T08:18:29.839Z,101333.44
2022-12-25T08:20:57.379Z,101328.81
2022-12-25T08:23:23.819Z,101354.75
2022-12-25T08:25:50.306Z,101352.06
2022-12-25T08:28:16.763Z,101327.38
2022-12-25T08:30:43.286Z,101328.81
2022-12-25T08:33:09.971Z,101324.22
2022-12-25T08:35:36.653Z,101322.28
2022-12-25T08:38:03.181Z,101314.47
2022-12-25T08:40:29.667Z,101327.00
2022-12-25T08:42:57.192Z,101325.84
2022-12-25T08:45:23.898Z,101310.44
2022-12-25T08:47:54.896Z,101312.69
2022-12-25T08:50:22.541Z,101302.50
2022-12-25T08:52:49.071Z,101312.22
2022-12-25T08:55:15.696Z,101314.75
2022-12-25T08:57:43.226Z,101322.09
2022-12-25T09:00:10.563Z,101315.84
2022-12-25T09:02:37.181Z,101314.25
2022-12-25T09:05:03.871Z,101310.44
2022-12-25T09:07:30.307Z,101314.75
2022-12-25T09:09:56.766Z,101301.34
2022-12-25T09:12:23.243Z,101293.38
2022-12-25T09:14:49.677Z,101298.47
2022-12-25T09:17:16.184Z,101314.38
2022-12-25T09:19:42.619Z,101306.72
2022-12-25T09:22:09.062Z,101310.69
2022-12-25T09:24:35.564Z,101308.78
2022-12-25T09:27:02.362Z,101311.66
2022-12-25T09:29:28.826Z,101313.56
2022-12-25T09:31:55.261Z,101329.31
2022-12-25T09:34:21.813Z,101330.09
2022-12-25T09:36:48.287Z,101347.19
2022-12-25T09:39:14.781Z,101342.84
2022-12-25T09:42:02.135Z,101343.34
2022-12-25T09:44:37.950Z,101333.63
2022-12-25T09:47:16.659Z,101312.09
2022-12-25T09:49:54.181Z,101305.06
2022-12-25T09:52:26.424Z,101307.91
2022-12-25T09:55:20.577Z,101309.38
2022-12-25T09:57:53.912Z,101306.00
2022-12-25T10:00:23.337Z,101285.44
2022-12-25T10:02:55.776Z,101286.25
2022-12-25T10:05:44.036Z,101290.88
2022-12-25T10:08:19.466Z,101295.66
2022-12-25T10:11:14.126Z,101301.06
2022-12-25T10:13:59.394Z,101276.06
2022-12-25T10:16:53.155Z,101277.00
2022-12-25T10:19:44.485Z,101279.69
2022-12-25T10:22:16.814Z,101263.78
2022-12-25T10:24:49.141Z,101267.75
2022-12-25T10:27:46.485Z,101273.50
2022-12-25T10:30:19.351Z,101271.78
2022-12-25T10:32:47.108Z,101270.19
2022-12-25T10:35:16.190Z,101268.91
2022-12-25T10:37:44.493Z,101255.72
2022-12-25T10:40:50.059Z,101267.19
2022-12-25T10:43:28.427Z,101266.06
2022-12-25T10:45:54.902Z,101257.94
2022-12-25T10:48:28.638Z,101257.16
2022-12-25T10:50:56.407Z,101254.13
2022-12-25T10:53:26.623Z,101252.53
2022-12-25T10:55:55.132Z,101238.22
2022-12-25T10:58:21.630Z,101234.25
2022-12-25T11:00:58.274Z,101226.13
2022-12-25T11:03:29.961Z,101232.34
2022-12-25T11:05:56.805Z,101225.63
2022-12-25T11:08:26.231Z,101212.88
2022-12-25T11:10:57.066Z,101200.31
2022-12-25T11:13:27.125Z,101198.50
2022-12-25T11:16:14.063Z,101189.25
2022-12-25T11:18:47.635Z,101180.34
2022-12-25T11:21:22.087Z,101182.69
2022-12-25T11:23:51.080Z,101172.75
2022-12-25T11:26:18.710Z,101177.22
2022-12-25T11:28:46.137Z,101174.00
2022-12-25T11:31:28.365Z,101166.22
2022-12-25T11:34:05.487Z,101158.75
2022-12-25T11:36:44.684Z,101139.47
2022-12-25T11:39:33.160Z,101145.94
2022-12-25T11:42:09.445Z,101131.72
2022-12-25T11:44:42.023Z,101130.25
2022-12-25T11:47:19.155Z,101142.56
2022-12-25T11:50:00.710Z,101134.78
2022-12-25T11:52:32.122Z,101132.41
2022-12-25T11:55:10.271Z,101134.44
2022-12-25T11:57:39.181Z,101127.91
2022-12-25T12:00:10.450Z,101133.53
2022-12-25T12:02:45.965Z,101141.16
2022-12-25T12:05:29.149Z,101137.03
2022-12-25T12:08:02.018Z,101137.03
2022-12-25T12:10:45.888Z,101125.84
2022-12-25T12:13:27.773Z,101126.66
2022-12-25T12:15:54.558Z,101122.03
2022-12-25T12:18:29.479Z,101125.97
2022-12-25T12:21:03.881Z,101122.13
2022-12-25T12:23:45.757Z,101106.03
2022-12-25T12:26:19.292Z,101101.06
2022-12-25T12:28:47.777Z,101110.44
2022-12-25T12:31:14.591Z,101105.81
2022-12-25T12:34:01.736Z,101099.84
2022-12-25T12:36:36.090Z,101102.28
2022-12-25T12:39:05.801Z,101098.88
2022-12-25T12:41:46.286Z,101093.09
2022-12-25T12:44:14.628Z,101074.34
2022-12-25T12:46:54.426Z,101082.00
2022-12-25T12:49:22.433Z,101082.69
2022-12-25T12:51:49.376Z,101081.91
2022-12-25T12:54:22.931Z,101085.25
2022-12-25T12:57:07.037Z,101080.31
2022-12-25T12:59:44.382Z,101076.69
2022-12-25T13:02:32.637Z,101083.38
2022-12-25T13:05:04.904Z,101083.25
2022-12-25T13:07:44.419Z,101075.13
2022-12-25T13:10:23.876Z,101076.13
2022-12-25T13:12:54.035Z,101065.75
2022-12-25T13:15:23.088Z,101061.00
2022-12-25T13:17:50.099Z,101054.81
2022-12-25T13:20:29.252Z,101046.69
2022-12-25T13:22:55.696Z,101043.72
2022-12-25T13:25:23.756Z,101037.97
2022-12-25T13:27:57.833Z,101043.53
2022-12-25T13:30:24.931Z,101039.69
2022-12-25T13:32:51.600Z,101033.94
2022-12-25T13:35:21.139Z,101029.31
2022-12-25T13:37:48.005Z,101022.31
2022-12-25T13:40:24.062Z,101023.53
2022-12-25T13:42:56.511Z,101005.03
2022-12-25T13:45:26.643Z,101015.41
2022-12-25T13:47:55.864Z,101012.38
2022-12-25T13:50:30.978Z,101015.41
2022-12-25T13:53:09.526Z,101026.25
2022-12-25T13:55:36.701Z,101025.13
2022-12-25T13:58:11.151Z,101024.22
2022-12-25T14:00:46.116Z,101026.94
2022-12-25T14:03:22.537Z,101022.97
2022-12-25T14:06:00.159Z,101006.03
2022-12-25T14:08:32.074Z,101011.66
2022-12-25T14:11:00.419Z,101012.78
2022-12-25T14:13:28.915Z,101016.63
2022-12-25T14:15:56.572Z,101021.16
2022-12-25T14:18:25.439Z,101018.78
2022-12-25T14:21:05.890Z,101010.66
2022-12-25T14:23:52.804Z,101012.44
2022-12-25T14:26:26.195Z,101012.00
2022-12-25T14:28:57.524Z,101006.56
2022-12-25T14:31:24.867Z,101017.53
2022-12-25T14:33:52.766Z,101015.50
2022-12-25T14:36:19.356Z,101024.22
2022-12-25T14:38:57.034Z,101016.28
2022-12-25T14:41:36.977Z,101011.91
2022-12-25T14:44:29.455Z,101010.66
2022-12-25T14:47:11.121Z,101012.25
2022-12-25T14:49:38.311Z,101009.41
2022-12-25T14:52:17.441Z,101010.66
2022-12-25T14:54:51.004Z,101010.66
2022-12-25T14:57:26.940Z,101018.44
2022-12-25T15:00:06.693Z,101003.31
2022-12-25T15:02:44.892Z,101016.38
2022-12-25T15:05:29.909Z,101007.63
2022-12-25T15:08:08.561Z,101007.16
2022-12-25T15:13:23.075Z,101003.44
2022-12-25T15:16:12.300Z,101002.53
2022-12-25T15:18:42.368Z,100986.72
2022-12-25T15:21:20.739Z,100977.47
2022-12-25T15:23:47.379Z,100985.00
2022-12-25T15:26:14.829Z,101005.78
2022-12-25T15:28:41.796Z,100999.13
2022-12-25T15:31:36.003Z,100997.31
2022-12-25T15:34:15.407Z,101007.38
2022-12-25T15:36:41.945Z,101007.25
2022-12-25T15:39:08.504Z,101003.41
2022-12-25T15:41:57.787Z,101004.84
2022-12-25T15:44:25.626Z,100987.50
2022-12-25T15:46:52.300Z,100985.91
2022-12-25T15:49:18.980Z,100975.84
2022-12-25T15:51:45.944Z,100966.63
2022-12-25T15:54:12.682Z,100972.50
2022-12-25T15:56:39.041Z,100987.03
2022-12-25T15:59:05.808Z,100976.53
2022-12-25T16:01:32.471Z,100969.97
2022-12-25T16:03:59.013Z,100959.50
2022-12-25T16:06:25.880Z,100947.53
2022-12-25T16:08:52.342Z,100936.47
2022-12-25T16:11:18.789Z,100960.06
2022-12-25T16:13:45.370Z,100950.22
2022-12-25T16:16:11.887Z,100953.38
2022-12-25T16:18:43.333Z,100966.16
2022-12-25T16:21:16.702Z,100973.47
2022-12-25T16:23:43.527Z,100974.63
2022-12-25T16:26:10.184Z,100981.34
2022-12-25T16:28:36.687Z,100983.75
2022-12-25T16:31:03.423Z,100983.88
2022-12-25T16:33:30.235Z,100990.75
2022-12-25T16:35:56.777Z,100983.50
2022-12-25T16:38:23.397Z,100973.91
2022-12-25T16:40:58.495Z,100962.81
2022-12-25T16:43:25.631Z,100944.19
2022-12-25T16:45:52.721Z,100933.94
2022-12-25T16:48:19.425Z,100922.44
2022-12-25T16:50:45.956Z,100930.69
2022-12-25T16:53:12.540Z,100918.84
2022-12-25T16:55:39.532Z,100927.75
2022-12-25T16:58:06.787Z,100936.44
2022-12-25T17:00:33.567Z,100946.47
2022-12-25T17:03:01.083Z,100955.06
2022-12-25T17:05:27.859Z,100952.00
2022-12-25T17:07:54.317Z,100943.97
2022-12-25T17:10:21.381Z,100938.34
2022-12-25T17:12:48.179Z,100942.63
2022-12-25T17:15:14.894Z,100948.03
2022-12-25T17:17:41.739Z,100952.41
2022-12-25T17:20:08.885Z,100949.25
2022-12-25T17:22:35.411Z,100956.59
2022-12-25T17:25:01.935Z,100954.97
2022-12-25T17:27:28.397Z,100953.28
2022-12-25T17:29:54.835Z,100957.91
2022-12-25T17:32:21.290Z,100951.44
2022-12-25T17:34:47.981Z,100946.22
2022-12-25T17:37:14.637Z,100938.09
2022-12-25T17:39:41.172Z,100935.28
2022-12-25T17:42:07.684Z,100944.00
2022-12-25T17:44:34.541Z,100955.06
2022-12-25T17:47:01.232Z,100957.47
2022-12-25T17:49:27.763Z,100949.97
2022-12-25T17:51:54.290Z,100961.03
2022-12-25T17:54:21.004Z,100959.75
2022-12-25T17:56:48.055Z,100960.09
2022-12-25T17:59:18.487Z,100956.25
2022-12-25T18:01:46.776Z,100956.84
2022-12-25T18:04:13.782Z,100951.91
2022-12-25T18:06:40.385Z,100954.94
2022-12-25T18:09:07.326Z,100955.28
2022-12-25T18:11:34.151Z,100942.53
2022-12-25T18:14:05.237Z,100942.00
2022-12-25T18:16:35.941Z,100938.50
2022-12-25T18:19:02.776Z,100936.09
2022-12-25T18:21:29.343Z,100933.41
2022-12-25T18:23:56.013Z,100930.69
2022-12-25T18:26:22.968Z,100926.41
2022-12-25T18:28:50.186Z,100926.91
2022-12-25T18:31:20.770Z,100929.59
2022-12-25T18:33:47.928Z,100925.53
2022-12-25T18:36:16.757Z,100925.19
2022-12-25T18:38:43.391Z,100927.91
2022-12-25T18:41:10.676Z,100935.91
2022-12-25T18:43:52.254Z,100946.53
2022-12-25T18:46:22.324Z,100960.19
2022-12-25T18:48:49.207Z,100959.41
2022-12-25T18:51:15.712Z,100947.09
2022-12-25T18:53:42.368Z,100953.75
2022-12-25T18:56:15.680Z,100942.13
2022-12-25T18:58:42.919Z,100943.59
2022-12-25T19:01:19.263Z,100932.00
2022-12-25T19:03:46.361Z,100945.63
2022-12-25T19:06:21.640Z,100943.03
2022-12-25T19:08:48.542Z,100935.47
2022-12-25T19:11:16.126Z,100928.78
2022-12-25T19:13:43.135Z,100926.22
2022-12-25T19:16:10.044Z,100931.09
2022-12-25T19:18:37.208Z,100922.63
2022-12-25T19:21:06.030Z,100924.88
2022-12-25T19:23:32.741Z,100924.22
2022-12-25T19:25:59.370Z,100921.06
2022-12-25T19:28:25.981Z,100922.50
2022-12-25T19:30:54.049Z,100918.88
2022-12-25T19:33:21.927Z,100926.81
2022-12-25T19:35:48.970Z,100931.31
2022-12-25T19:38:16.069Z,100932.91
2022-12-25T19:41:00.115Z,100934.81
2022-12-25T19:43:32.794Z,100936.63
2022-12-25T19:46:00.339Z,100947.34
2022-12-25T19:48:26.994Z,100950.91
2022-12-25T19:50:53.845Z,100948.75
2022-12-25T19:53:23.498Z,100943.53
2022-12-25T19:55:52.377Z,100945.78
2022-12-25T19:58:23.561Z,100951.88
2022-12-25T20:01:02.035Z,100953.44
2022-12-25T20:03:28.842Z,100956.41
2022-12-25T20:05:55.703Z,100957.47
2022-12-25T20:08:22.231Z,100959.50
2022-12-25T20:10:49.203Z,100958.94
2022-12-25T20:13:16.231Z,100957.94
2022-12-25T20:15:45.384Z,100961.44
2022-12-25T20:18:12.106Z,100956.47
2022-12-25T20:20:38.617Z,100958.38
2022-12-25T20:23:05.691Z,100958.72
2022-12-25T20:25:32.540Z,100960.00
2022-12-25T20:27:59.047Z,100957.94
2022-12-25T20:30:25.562Z,100962.09
2022-12-25T20:32:52.088Z,100964.81
2022-12-25T20:35:19.040Z,100949.03
2022-12-25T20:37:45.542Z,100952.66
2022-12-25T20:40:12.660Z,100960.00
2022-12-25T20:42:39.197Z,100957.59
2022-12-25T20:45:07.754Z,100955.69
2022-12-25T20:47:35.005Z,100956.94
2022-12-25T20:50:01.508Z,100958.53
2022-12-25T20:52:28.111Z,100969.03
2022-12-25T20:54:54.574Z,100961.09
2022-12-25T20:57:21.045Z,100966.50
2022-12-25T20:59:47.517Z,100963.00
2022-12-25T21:02:35.042Z,100964.13
2022-12-25T21:05:01.201Z,100965.06
2022-12-25T21:07:27.746Z,100969.03
2022-12-25T21:09:54.459Z,100966.31
2022-12-25T21:12:20.935Z,100968.22
2022-12-25T21:14:47.418Z,100970.00
2022-12-25T21:17:14.038Z,100960.31
2022-12-25T21:19:40.810Z,100975.75
2022-12-25T21:22:07.382Z,100980.38
2022-12-25T21:24:33.896Z,100987.25
2022-12-25T21:27:00.435Z,100980.59
2022-12-25T21:29:26.922Z,100986.38
2022-12-25T21:32:12.700Z,101001.22
2022-12-25T21:34:39.862Z,101016.22
2022-12-25T21:37:06.418Z,101006.19
2022-12-25T21:39:33.201Z,101013.63
2022-12-25T21:41:59.712Z,101018.91
2022-12-25T21:44:26.302Z,101027.84
2022-12-25T21:46:52.738Z,101016.66
2022-12-25T21:49:39.249Z,101019.72
2022-12-25T21:52:08.798Z,101015.72
2022-12-25T21:54:35.327Z,101018.09
2022-12-25T21:57:01.955Z,101024.84
2022-12-25T21:59:28.440Z,101014.38
2022-12-25T22:01:55.189Z,101016.59
2022-12-25T22:04:22.990Z,101022.34
2022-12-25T22:07:07.786Z,101024.25
2022-12-25T22:09:34.664Z,101028.41
2022-12-25T22:12:20.424Z,101025.25
2022-12-25T22:15:02.553Z,101028.09
2022-12-25T22:17:50.110Z,101026.97
2022-12-25T22:20:19.891Z,101028.09
2022-12-25T22:22:46.508Z,101027.97
2022-12-25T22:25:14.314Z,101023.34
2022-12-25T22:27:42.766Z,101033.84
2022-12-25T22:30:21.351Z,101036.88
2022-12-25T22:32:48.573Z,101038.78
2022-12-25T22:35:16.333Z,101010.59
2022-12-25T22:37:43.405Z,101004.63
2022-12-25T22:40:12.898Z,101010.88
2022-12-25T22:42:39.638Z,100983.94
2022-12-25T22:45:06.628Z,100993.16
2022-12-25T22:47:33.160Z,101000.03
2022-12-25T22:49:59.735Z,101007.69
2022-12-25T22:52:26.416Z,101015.69
2022-12-25T22:54:53.214Z,100998.31
2022-12-25T22:57:19.751Z,100992.91
2022-12-25T22:59:46.254Z,101005.53
2022-12-25T23:02:12.784Z,101005.97
2022-12-25T23:04:39.357Z,101011.41
2022-12-25T23:07:05.911Z,101015.88
2022-12-25T23:09:32.451Z,101013.50
2022-12-25T23:11:59.332Z,101014.50
2022-12-25T23:14:39.523Z,101018.34
2022-12-25T23:17:29.353Z,101005.78
2022-12-25T23:20:15.902Z,101008.47
2022-12-25T23:23:01.250Z,101008.16
2022-12-25T23:25:47.182Z,100988.09
2022-12-25T23:28:13.687Z,100990.47
2022-12-25T23:30:40.254Z,100990.94
2022-12-25T23:33:07.276Z,100999.41
2022-12-25T23:35:33.805Z,101008.47
2022-12-25T23:38:00.362Z,101009.16
2022-12-25T23:40:26.818Z,101016.78
2022-12-25T23:42:53.338Z,101025.22
2022-12-25T23:45:19.817Z,101018.91
2022-12-25T23:47:46.281Z,101021.28
2022-12-25T23:50:12.736Z,101020.16
2022-12-25T23:52:39.798Z,101019.81
2022-12-25T23:55:07.026Z,101032.56
2022-12-25T23:57:33.650Z,101032.09
